Time;durP1;ratioP1;P1;durP2;ratioP2;P2;SDS_P1;SDS_P2;PMS_P1;PMS_P2;Temp;Humidity;BMP_temperature;BMP_pressure;BME280_temperature;BME280_humidity;BME280_pressure;Samples;Min_cycle;Max_cycle;Signal;HPM_P1;HPM_P2
2022/07/10 00:01:49;;;;;;;;;;;;;;;20.39;70.12;152778.36;1776561;79;20580;-64
2022/07/10 00:04:16;;;;;;;;;;;;;;;20.38;70.16;152775.75;1776702;80;21302;-64
2022/07/10 00:06:46;;;;;;;;;;;;;;;20.36;70.32;152770.53;1776619;80;20408;-64
2022/07/10 00:09:11;;;;;;;;;;;;;;;20.32;70.21;152761.38;1776975;80;20095;-64
2022/07/10 00:11:38;;;;;;;;;;;;;;;20.28;70.49;152752.25;1773381;80;20673;-63
2022/07/10 00:14:05;;;;;;;;;;;;;;;20.26;70.65;152747.03;1772249;81;20384;-64
2022/07/10 00:16:32;;;;;;;;;;;;;;;20.25;70.74;152743.09;1772613;81;21841;-63
2022/07/10 00:18:58;;;;;;;;;;;;;;;20.20;70.79;152731.31;1772220;81;20196;-64
2022/07/10 00:21:25;;;;;;;;;;;;;;;20.17;70.64;152723.50;1772302;81;20173;-64
2022/07/10 00:23:52;;;;;;;;;;;;;;;20.12;70.61;152711.77;1772180;81;20619;-63
2022/07/10 00:26:19;;;;;;;;;;;;;;;20.08;70.71;152700.00;1779826;79;20195;-64
2022/07/10 00:28:46;;;;;;;;;;;;;;;20.06;70.67;152696.06;1768390;81;21229;-64
2022/07/10 00:31:12;;;;;;;;;;;;;;;20.06;70.60;152694.78;1767700;81;20156;-64
2022/07/10 00:33:39;;;;;;;;;;;;;;;20.02;70.60;152686.95;1773316;80;20194;-64
2022/07/10 00:36:07;;;;;;;;;;;;;;;20.01;70.58;152684.34;1773573;81;37682;-64
2022/07/10 00:38:34;;;;;;;;;;;;;;;19.96;70.78;152671.25;1774041;81;20430;-64
2022/07/10 00:41:02;;;;;;;;;;;;;;;19.93;71.13;152663.41;1773815;81;22791;-65
2022/07/10 00:43:30;;;;;;;;;;;;;;;19.93;71.39;152663.41;1773922;81;20162;-64
2022/07/10 00:45:56;;;;;;;;;;;;;;;19.92;71.23;152659.53;1773886;80;20170;-64
2022/07/10 00:48:23;;;;;;;;;;;;;;;19.88;71.37;152650.31;1773918;81;20142;-64
2022/07/10 00:50:51;;;;;;;;;;;;;;;19.86;71.54;152645.09;1773742;81;20214;-64
2022/07/10 00:53:18;;;;;;;;;;;;;;;19.82;71.77;152634.66;1774002;81;21164;-64
2022/07/10 00:55:44;;;;;;;;;;;;;;;19.79;72.14;152626.84;1773855;80;20411;-64
2022/07/10 00:58:11;;;;;;;;;;;;;;;19.77;72.43;152622.89;1773967;80;20139;-63
2022/07/10 01:00:38;;;;;;;;;;;;;;;19.74;72.62;152616.34;1773792;80;20170;-64
2022/07/10 01:03:05;;;;;;;;;;;;;;;19.73;72.98;152613.73;1773777;80;20147;-63
2022/07/10 01:05:33;;;;;;;;;;;;;;;19.72;73.10;152611.12;1774215;80;22077;-64
2022/07/10 01:08:00;;;;;;;;;;;;;;;19.70;73.43;152605.91;1773841;81;20166;-63
2022/07/10 01:10:27;;;;;;;;;;;;;;;19.67;73.65;152598.08;1774600;80;20178;-63
2022/07/10 01:12:55;;;;;;;;;;;;;;;19.64;73.76;152590.25;1776634;80;20079;-63
2022/07/10 01:15:21;;;;;;;;;;;;;;;19.60;74.04;152579.81;1776941;79;20174;-64
2022/07/10 01:17:49;;;;;;;;;;;;;;;19.57;74.26;152571.98;1776483;79;21235;-63
2022/07/10 01:20:17;;;;;;;;;;;;;;;19.55;74.40;152566.72;1776575;79;20143;-64
2022/07/10 01:22:44;;;;;;;;;;;;;;;19.52;74.54;152560.22;1776545;80;20470;-64
2022/07/10 01:25:11;;;;;;;;;;;;;;;19.49;74.99;152551.06;1776363;79;21042;-64
2022/07/10 01:27:38;;;;;;;;;;;;;;;19.41;75.31;152532.81;1776807;79;20162;-64
2022/07/10 01:30:07;;;;;;;;;;;;;;;19.33;75.92;152511.89;1757143;81;20105;-64
2022/07/10 01:32:39;;;;;;;;;;;;;;;19.24;76.52;152488.41;1757510;81;20177;-64
2022/07/10 01:35:07;;;;;;;;;;;;;;;19.15;77.08;152467.55;1757395;81;20142;-64
2022/07/10 01:37:35;;;;;;;;;;;;;;;19.09;77.50;152451.84;1757536;81;20149;-64
2022/07/10 01:40:03;;;;;;;;;;;;;;;19.02;77.89;152433.59;1757241;81;20193;-64
2022/07/10 01:42:30;;;;;;;;;;;;;;;18.97;78.23;152420.50;1757334;80;21752;-64
2022/07/10 01:44:57;;;;;;;;;;;;;;;18.92;78.51;152408.73;1757187;81;20169;-64
2022/07/10 01:47:25;;;;;;;;;;;;;;;18.90;78.65;152404.84;1757180;81;20200;-64
2022/07/10 01:49:53;;;;;;;;;;;;;;;18.90;78.73;152403.53;1757216;80;20133;-64
2022/07/10 01:52:20;;;;;;;;;;;;;;;18.84;78.91;152387.88;1757560;81;20142;-64
2022/07/10 01:54:47;;;;;;;;;;;;;;;18.81;79.02;152380.05;1757007;80;21137;-64
2022/07/10 01:57:14;;;;;;;;;;;;;;;18.79;78.97;152374.78;1757009;80;20479;-64
2022/07/10 01:59:41;;;;;;;;;;;;;;;18.77;78.98;152370.91;1757153;81;20216;-64
2022/07/10 02:02:08;;;;;;;;;;;;;;;18.76;78.85;152369.58;1757001;81;20225;-64
2022/07/10 02:04:42;;;;;;;;;;;;;;;18.73;78.87;152361.75;1757370;81;20142;-64
2022/07/10 02:07:09;;;;;;;;;;;;;;;18.68;78.96;152347.38;1757529;81;21228;-62
2022/07/10 02:09:36;;;;;;;;;;;;;;;18.64;79.13;152338.28;1757386;80;20189;-61
2022/07/10 02:12:04;;;;;;;;;;;;;;;18.64;79.21;152336.95;1778563;80;20199;-62
2022/07/10 02:14:31;;;;;;;;;;;;;;;18.63;79.16;152334.34;1772018;80;20198;-61
2022/07/10 02:16:57;;;;;;;;;;;;;;;18.60;79.10;152329.13;1772465;81;20184;-62
2022/07/10 02:19:25;;;;;;;;;;;;;;;18.58;79.10;152323.91;1772366;81;21220;-62
2022/07/10 02:21:51;;;;;;;;;;;;;;;18.55;79.04;152316.09;1771839;81;20215;-62
2022/07/10 02:24:18;;;;;;;;;;;;;;;18.54;79.05;152313.48;1772046;81;20232;-61
2022/07/10 02:26:45;;;;;;;;;;;;;;;18.52;79.00;152308.27;1749643;80;20189;-62
2022/07/10 02:29:12;;;;;;;;;;;;;;;18.50;79.01;152303.06;1745163;80;20106;-62
2022/07/10 02:31:42;;;;;;;;;;;;;;;18.48;78.94;152297.84;1746466;80;21207;-61
2022/07/10 02:34:10;;;;;;;;;;;;;;;18.44;78.97;152287.36;1747796;80;20442;-62
2022/07/10 02:36:38;;;;;;;;;;;;;;;18.42;78.98;152282.16;1747871;80;20172;-61
2022/07/10 02:39:05;;;;;;;;;;;;;;;18.43;78.91;152284.75;1771918;80;20206;-62
2022/07/10 02:41:33;;;;;;;;;;;;;;;18.45;78.72;152289.97;1806203;79;20120;-62
2022/07/10 02:44:00;;;;;;;;;;;;;;;18.47;78.22;152295.23;1805472;79;21877;-61
2022/07/10 02:46:27;;;;;;;;;;;;;;;18.47;78.04;152295.23;1805760;79;20147;-62
2022/07/10 02:48:53;;;;;;;;;;;;;;;18.50;77.80;152303.06;1805617;79;20487;-62
2022/07/10 02:51:20;;;;;;;;;;;;;;;18.51;77.31;152305.66;1805502;79;20480;-62
2022/07/10 02:53:47;;;;;;;;;;;;;;;18.52;77.15;152308.27;1805954;79;20467;-62
2022/07/10 02:56:14;;;;;;;;;;;;;;;18.56;76.71;152317.38;1805715;79;23372;-61
2022/07/10 02:58:41;;;;;;;;;;;;;;;18.58;76.38;152323.91;1805646;78;20219;-62
2022/07/10 03:01:08;;;;;;;;;;;;;;;18.63;75.73;152334.34;1805718;79;20385;-62
2022/07/10 03:03:35;;;;;;;;;;;;;;;18.68;75.33;152347.38;1805879;79;20453;-62
2022/07/10 03:06:02;;;;;;;;;;;;;;;18.73;74.78;152360.47;1805542;78;20425;-62
2022/07/10 03:08:29;;;;;;;;;;;;;;;18.78;74.32;152373.50;1805975;79;21133;-62
2022/07/10 03:10:56;;;;;;;;;;;;;;;18.82;73.98;152383.94;1801202;78;20194;-61
2022/07/10 03:13:23;;;;;;;;;;;;;;;18.87;73.46;152396.97;1798063;79;20139;-62
2022/07/10 03:15:50;;;;;;;;;;;;;;;18.93;73.35;152410.06;1797953;79;20170;-62
2022/07/10 03:18:17;;;;;;;;;;;;;;;19.01;73.12;152430.98;1804315;79;20142;-62
2022/07/10 03:20:44;;;;;;;;;;;;;;;19.08;72.50;152449.23;1798026;78;21206;-62
2022/07/10 03:23:10;;;;;;;;;;;;;;;19.11;72.47;152457.06;1797851;79;20194;-62
2022/07/10 03:25:37;;;;;;;;;;;;;;;19.15;72.34;152467.55;1799592;78;20467;-63
2022/07/10 03:28:04;;;;;;;;;;;;;;;19.16;72.05;152470.16;1803322;79;20450;-63
2022/07/10 03:30:31;;;;;;;;;;;;;;;19.18;72.10;152475.38;1803427;79;20423;-63
2022/07/10 03:32:58;;;;;;;;;;;;;;;19.21;72.16;152481.86;1803275;79;21290;-61
2022/07/10 03:35:25;;;;;;;;;;;;;;;19.25;72.06;152492.34;1803242;79;20925;-60
2022/07/10 03:37:52;;;;;;;;;;;;;;;19.28;72.19;152500.17;1803245;79;20143;-61
2022/07/10 03:40:20;;;;;;;;;;;;;;;19.35;72.10;152517.16;1803494;79;20143;-61
2022/07/10 03:42:47;;;;;;;;;;;;;;;19.38;71.98;152524.98;1803308;78;20138;-61
2022/07/10 03:45:13;;;;;;;;;;;;;;;19.43;72.16;152538.03;1803346;79;21125;-62
2022/07/10 03:47:40;;;;;;;;;;;;;;;19.49;72.16;152551.06;1803061;79;20474;-62
2022/07/10 03:50:08;;;;;;;;;;;;;;;19.54;71.93;152564.13;1803364;79;20123;-62
2022/07/10 03:52:34;;;;;;;;;;;;;;;19.53;72.00;152561.50;1803329;79;20446;-62
2022/07/10 03:55:01;;;;;;;;;;;;;;;19.57;71.88;152571.98;1803242;79;20186;-62
2022/07/10 04:00:14;;;;;;;;;;;;;;;19.66;71.18;152594.14;1803152;79;20174;-63
2022/07/10 04:02:43;;;;;;;;;;;;;;;19.65;71.21;152592.86;1798505;79;20449;-63
2022/07/10 04:05:10;;;;;;;;;;;;;;;19.70;71.09;152605.91;1788398;79;20198;-62
2022/07/10 04:07:36;;;;;;;;;;;;;;;19.74;70.62;152616.34;1778730;80;20600;-63
2022/07/10 04:10:04;;;;;;;;;;;;;;;19.79;70.47;152626.84;1753201;80;21923;-63
2022/07/10 04:12:32;;;;;;;;;;;;;;;19.87;70.29;152647.70;1798073;79;20126;-63
2022/07/10 04:14:59;;;;;;;;;;;;;;;19.99;69.97;152679.08;1766556;81;20172;-63
2022/07/10 04:17:26;;;;;;;;;;;;;;;20.10;69.59;152705.22;1772337;80;20681;-63
2022/07/10 04:19:53;;;;;;;;;;;;;;;20.20;68.87;152730.03;1771773;81;20304;-63
2022/07/10 04:22:19;;;;;;;;;;;;;;;20.23;68.61;152739.20;1771897;80;21202;-63
2022/07/10 04:24:46;;;;;;;;;;;;;;;20.26;68.63;152747.03;1771167;81;20184;-63
2022/07/10 04:27:13;;;;;;;;;;;;;;;20.38;68.17;152775.75;1732925;80;20671;-63
2022/07/10 04:29:40;;;;;;;;;;;;;;;20.43;67.67;152788.80;1725552;81;20863;-63
2022/07/10 04:32:08;;;;;;;;;;;;;;;20.49;67.64;152804.50;1725744;83;20191;-63
2022/07/10 04:34:35;;;;;;;;;;;;;;;20.56;67.15;152821.50;1716580;83;21222;-63
2022/07/10 04:37:04;;;;;;;;;;;;;;;20.59;67.18;152830.63;1738905;82;20210;-63
2022/07/10 04:39:31;;;;;;;;;;;;;;;20.64;66.52;152841.06;1739226;81;20143;-63
2022/07/10 04:41:58;;;;;;;;;;;;;;;20.69;66.32;152854.16;1738989;81;20207;-63
2022/07/10 04:44:24;;;;;;;;;;;;;;;20.77;65.69;152875.05;1739023;82;20196;-63
2022/07/10 04:46:51;;;;;;;;;;;;;;;20.84;65.80;152892.09;1739170;81;21222;-63
2022/07/10 04:49:18;;;;;;;;;;;;;;;20.96;65.33;152922.16;1739069;81;20417;-63
2022/07/10 04:51:45;;;;;;;;;;;;;;;21.08;64.68;152953.48;1739274;82;20130;-64
2022/07/10 04:54:12;;;;;;;;;;;;;;;21.18;64.37;152979.66;1738839;81;20392;-64
2022/07/10 04:56:38;;;;;;;;;;;;;;;21.30;64.12;153008.38;1739191;81;20158;-63
2022/07/10 04:59:05;;;;;;;;;;;;;;;21.40;63.36;153033.22;1738988;81;21228;-63
2022/07/10 05:01:33;;;;;;;;;;;;;;;21.50;62.71;153058.06;1739027;81;20187;-63
2022/07/10 05:04:00;;;;;;;;;;;;;;;21.58;62.46;153079.00;1738810;82;20175;-63
2022/07/10 05:06:27;;;;;;;;;;;;;;;21.66;61.99;153099.95;1739102;82;20183;-63
2022/07/10 05:08:54;;;;;;;;;;;;;;;21.77;61.50;153126.08;1739012;81;20171;-63
2022/07/10 05:11:22;;;;;;;;;;;;;;;21.85;61.58;153147.03;1727452;82;21134;-62
2022/07/10 05:13:49;;;;;;;;;;;;;;;21.97;61.24;153177.11;1737063;82;20490;-62
2022/07/10 05:16:16;;;;;;;;;;;;;;;22.03;59.98;153194.11;1736902;81;20170;-62
2022/07/10 05:18:43;;;;;;;;;;;;;;;22.08;60.21;153205.84;1736892;82;20201;-62
2022/07/10 05:21:10;;;;;;;;;;;;;;;22.14;59.98;153220.25;1736784;81;20475;-61
2022/07/10 05:23:37;;;;;;;;;;;;;;;22.18;59.27;153232.03;1736987;82;21219;-63
2022/07/10 05:26:04;;;;;;;;;;;;;;;22.20;59.39;153234.64;1736649;79;20182;-62
2022/07/10 05:28:31;;;;;;;;;;;;;;;22.24;59.54;153245.09;1737069;82;20169;-62
2022/07/10 05:30:58;;;;;;;;;;;;;;;22.33;59.44;153268.67;1736780;82;20521;-65
2022/07/10 05:33:27;;;;;;;;;;;;;;;22.48;58.91;153306.64;1736837;82;20201;-64
2022/07/10 05:35:53;;;;;;;;;;;;;;;22.53;58.32;153319.70;1736728;82;22041;-64
2022/07/10 05:38:20;;;;;;;;;;;;;;;22.52;58.54;153317.09;1736811;81;20189;-61
2022/07/10 05:40:46;;;;;;;;;;;;;;;22.56;58.28;153326.27;1737042;82;20207;-61
2022/07/10 05:43:13;;;;;;;;;;;;;;;22.59;58.34;153335.39;1736643;82;20198;-61
2022/07/10 05:45:40;;;;;;;;;;;;;;;22.65;58.04;153348.47;1736860;82;20508;-61
2022/07/10 05:48:08;;;;;;;;;;;;;;;22.67;57.98;153353.73;1736714;82;21185;-61
2022/07/10 05:50:35;;;;;;;;;;;;;;;22.72;58.13;153366.81;1736519;82;20174;-61
2022/07/10 05:53:02;;;;;;;;;;;;;;;22.78;58.16;153382.50;1714939;82;20186;-61
2022/07/10 05:55:29;;;;;;;;;;;;;;;22.78;57.40;153382.50;1706907;83;20170;-60
2022/07/10 05:57:55;;;;;;;;;;;;;;;22.74;57.63;153373.31;1710009;83;20230;-61
2022/07/10 06:00:22;;;;;;;;;;;;;;;22.77;57.67;153379.88;1736751;82;21225;-60
2022/07/10 06:02:49;;;;;;;;;;;;;;;22.84;57.37;153396.91;1712969;82;20219;-61
2022/07/10 06:05:16;;;;;;;;;;;;;;;22.84;57.66;153396.91;1736632;82;20633;-60
2022/07/10 06:07:43;;;;;;;;;;;;;;;22.88;57.37;153408.69;1712961;83;20179;-61
2022/07/10 06:10:10;;;;;;;;;;;;;;;22.86;57.19;153403.41;1737058;82;20477;-60
2022/07/10 06:12:37;;;;;;;;;;;;;;;22.84;56.97;153398.19;1725869;83;21248;-60
2022/07/10 06:15:05;;;;;;;;;;;;;;;22.86;57.15;153403.41;1725459;82;20171;-61
2022/07/10 06:17:31;;;;;;;;;;;;;;;22.99;57.46;153434.83;1725916;82;20460;-61
2022/07/10 06:19:58;;;;;;;;;;;;;;;23.15;56.80;153476.72;1725533;82;20196;-61
2022/07/10 06:22:31;;;;;;;;;;;;;;;23.21;55.56;153491.13;1725724;82;20164;-61
2022/07/10 06:24:59;;;;;;;;;;;;;;;23.17;55.93;153481.94;1725699;83;21937;-61
2022/07/10 06:27:26;;;;;;;;;;;;;;;23.18;55.57;153484.56;1736979;82;20166;-62
2022/07/10 06:29:53;;;;;;;;;;;;;;;23.16;56.13;153479.33;1745631;82;20163;-61
2022/07/10 06:32:20;;;;;;;;;;;;;;;23.24;56.17;153497.64;1745439;81;20123;-61
2022/07/10 06:34:47;;;;;;;;;;;;;;;23.32;55.68;153518.61;1745539;82;20198;-61
2022/07/10 06:37:13;;;;;;;;;;;;;;;23.40;55.81;153539.58;1745374;82;21137;-61
2022/07/10 06:39:40;;;;;;;;;;;;;;;23.45;55.15;153552.66;1745412;82;20170;-61
2022/07/10 06:42:08;;;;;;;;;;;;;;;23.50;54.48;153564.44;1745489;82;20174;-61
2022/07/10 06:44:37;;;;;;;;;;;;;;;23.54;54.19;153573.56;1744973;81;20114;-61
2022/07/10 06:49:49;;;;;;;;;;;;;;;23.64;54.29;153599.78;1745503;82;21046;-61
2022/07/10 06:52:16;;;;;;;;;;;;;;;23.80;54.30;153639.06;1745363;82;20206;-62
2022/07/10 06:54:44;;;;;;;;;;;;;;;23.92;54.25;153670.45;1745363;82;20178;-61
2022/07/10 06:57:11;;;;;;;;;;;;;;;24.07;53.50;153707.19;1745489;81;20450;-61
2022/07/10 06:59:38;;;;;;;;;;;;;;;24.08;52.70;153711.08;1745487;81;20167;-61
2022/07/10 07:02:05;;;;;;;;;;;;;;;24.11;52.48;153718.97;1745380;82;21215;-61
2022/07/10 07:04:31;;;;;;;;;;;;;;;24.24;52.18;153750.38;1745304;82;20221;-61
2022/07/10 07:06:58;;;;;;;;;;;;;;;24.29;51.06;153764.78;1745315;81;20170;-62
2022/07/10 07:09:25;;;;;;;;;;;;;;;24.24;51.37;153750.38;1745504;81;20190;-62
2022/07/10 07:11:52;;;;;;;;;;;;;;;24.25;51.65;153752.98;1723118;81;20181;-62
2022/07/10 07:14:19;;;;;;;;;;;;;;;24.35;51.81;153777.88;1718818;83;21215;-62
2022/07/10 07:16:56;;;;;;;;;;;;;;;24.52;51.69;153821.08;1718702;83;20201;-62
2022/07/10 07:19:30;;;;;;;;;;;;;;;24.67;51.12;153860.37;1718469;83;20405;-62
2022/07/10 07:24:32;;;;;;;;;;;;;;;24.82;49.89;153898.41;1740235;82;20536;-62
2022/07/10 07:26:59;;;;;;;;;;;;;;;24.83;49.54;153901.03;1753394;80;21128;-63
2022/07/10 07:29:26;;;;;;;;;;;;;;;24.86;49.49;153907.59;1777663;80;20100;-62
2022/07/10 07:31:55;;;;;;;;;;;;;;;24.99;49.01;153940.33;1777542;80;20480;-62
2022/07/10 07:34:21;;;;;;;;;;;;;;;25.08;48.55;153963.89;1777508;80;20200;-62
2022/07/10 07:36:48;;;;;;;;;;;;;;;25.15;48.43;153982.27;1777480;80;20465;-62
2022/07/10 07:39:15;;;;;;;;;;;;;;;25.24;47.63;154004.55;1777490;80;21834;-62
2022/07/10 07:41:42;;;;;;;;;;;;;;;25.27;47.49;154012.41;1806349;79;20167;-62
2022/07/10 07:44:09;;;;;;;;;;;;;;;25.36;47.66;154034.67;1816315;79;20412;-65
2022/07/10 07:46:36;;;;;;;;;;;;;;;25.46;46.15;154060.86;1816039;79;20207;-62
2022/07/10 07:49:02;;;;;;;;;;;;;;;25.42;45.45;154049.06;1816109;79;20168;-63
2022/07/10 07:51:29;;;;;;;;;;;;;;;25.43;45.56;154051.72;1816479;79;21179;-62
2022/07/10 07:53:56;;;;;;;;;;;;;;;25.51;46.05;154071.37;1816446;79;20099;-62
2022/07/10 07:56:23;;;;;;;;;;;;;;;25.60;45.23;154096.28;1816334;79;20144;-63
2022/07/10 07:58:50;;;;;;;;;;;;;;;25.61;44.89;154097.63;1816451;78;20199;-62
2022/07/10 08:01:19;;;;;;;;;;;;;;;25.59;45.10;154092.38;1816434;79;20464;-63
2022/07/10 08:03:45;;;;;;;;;;;;;;;25.55;44.38;154081.91;1816598;79;21216;-63
2022/07/10 08:06:13;;;;;;;;;;;;;;;25.46;42.93;154059.58;1816276;79;20408;-62
2022/07/10 08:08:40;;;;;;;;;;;;;;;25.36;43.57;154033.34;1816537;79;20419;-62
2022/07/10 08:11:06;;;;;;;;;;;;;;;25.30;43.82;154018.92;1809563;79;20435;-62
2022/07/10 08:13:34;;;;;;;;;;;;;;;25.35;43.51;154032.06;1803389;78;20213;-62
2022/07/10 08:16:02;;;;;;;;;;;;;;;25.41;43.14;154047.77;1803253;79;21292;-62
2022/07/10 08:18:31;;;;;;;;;;;;;;;25.46;42.92;154060.86;1803730;79;20189;-63
2022/07/10 08:20:57;;;;;;;;;;;;;;;25.46;43.46;154060.86;1803404;79;20178;-62
2022/07/10 08:23:24;;;;;;;;;;;;;;;25.54;43.28;154079.28;1803403;79;20155;-62
2022/07/10 08:25:51;;;;;;;;;;;;;;;25.60;43.14;154095.00;1803388;79;20517;-62
2022/07/10 08:28:18;;;;;;;;;;;;;;;25.63;43.89;154102.86;1799237;78;21247;-62
2022/07/10 08:30:46;;;;;;;;;;;;;;;25.57;44.57;154087.14;1798238;79;20146;-62
2022/07/10 08:33:12;;;;;;;;;;;;;;;25.61;45.38;154097.63;1798090;78;20415;-62
2022/07/10 08:35:39;;;;;;;;;;;;;;;25.74;44.81;154131.66;1798045;78;20182;-63
2022/07/10 08:38:08;;;;;;;;;;;;;;;25.86;44.53;154160.52;1797986;79;20151;-63
2022/07/10 08:40:40;;;;;;;;;;;;;;;25.92;44.89;154176.23;1798363;79;21231;-63
2022/07/10 08:43:05;;;;;;;;;;;;;;;26.03;45.11;154205.09;1796946;79;20332;-62
2022/07/10 08:45:33;;;;;;;;;;;;;;;26.10;44.70;154220.81;1798172;79;20174;-63
2022/07/10 08:48:03;;;;;;;;;;;;;;;26.14;43.69;154231.28;1797893;79;20676;-63
2022/07/10 08:50:29;;;;;;;;;;;;;;;26.15;43.66;154235.23;1798374;79;20412;-63
2022/07/10 08:53:10;;;;;;;;;;;;;;;26.23;43.08;154253.63;1797924;79;21263;-63
2022/07/10 08:55:37;;;;;;;;;;;;;;;26.24;42.80;154256.25;1797873;79;20146;-61
2022/07/10 08:58:04;;;;;;;;;;;;;;;26.14;42.11;154231.28;1797427;79;20198;-62
2022/07/10 09:00:32;;;;;;;;;;;;;;;25.99;42.56;154193.28;1797690;78;20170;-62
2022/07/10 09:02:59;;;;;;;;;;;;;;;25.96;42.95;154186.70;1798023;79;20166;-61
2022/07/10 09:05:26;;;;;;;;;;;;;;;26.01;42.04;154199.84;1798048;79;21255;-61
2022/07/10 09:07:53;;;;;;;;;;;;;;;26.02;42.55;154201.14;1797883;78;20174;-62
2022/07/10 09:10:21;;;;;;;;;;;;;;;25.98;42.98;154192.00;1792939;79;20424;-61
2022/07/10 09:12:54;;;;;;;;;;;;;;;26.05;41.68;154207.72;1772425;80;20134;-61
2022/07/10 09:15:23;;;;;;;;;;;;;;;26.10;40.99;154222.14;1772184;81;20181;-61
2022/07/10 09:17:53;;;;;;;;;;;;;;;26.17;40.36;154239.19;1772634;81;21734;-61
2022/07/10 09:20:29;;;;;;;;;;;;;;;26.21;41.69;154249.72;1771226;80;20314;-61
2022/07/10 09:22:59;;;;;;;;;;;;;;;26.28;41.25;154268.06;1772317;81;20116;-61
2022/07/10 09:25:32;;;;;;;;;;;;;;;26.36;41.19;154286.39;1772523;81;20125;-61
2022/07/10 09:27:59;;;;;;;;;;;;;;;26.52;41.10;154327.03;1780244;79;20141;-61
2022/07/10 09:30:37;;;;;;;;;;;;;;;26.63;39.84;154354.56;1785328;79;22099;-62
2022/07/10 09:33:30;;;;;;;;;;;;;;;26.65;39.93;154359.84;1776887;80;20182;-61
2022/07/10 09:36:04;;;;;;;;;;;;;;;26.68;38.75;154367.70;1777367;80;20226;-61
2022/07/10 09:38:48;;;;;;;;;;;;;;;26.73;39.24;154382.09;1776010;80;20216;-62
2022/07/10 09:41:22;;;;;;;;;;;;;;;26.69;38.53;154370.33;1777431;80;20230;-61
2022/07/10 09:44:04;;;;;;;;;;;;;;;26.54;39.09;154333.59;1777501;80;21113;-62
2022/07/10 09:46:36;;;;;;;;;;;;;;;26.52;38.55;154328.36;1776277;80;20159;-62
2022/07/10 09:49:06;;;;;;;;;;;;;;;26.49;38.74;154319.16;1777204;80;20199;-64
2022/07/10 09:51:37;;;;;;;;;;;;;;;26.55;38.95;154334.94;1776788;80;20464;-65
2022/07/10 09:54:05;;;;;;;;;;;;;;;26.63;38.24;154354.56;1777059;80;20123;-64
2022/07/10 09:56:46;;;;;;;;;;;;;;;26.69;38.76;154370.33;1774713;80;21236;-65
2022/07/10 09:59:14;;;;;;;;;;;;;;;26.72;37.66;154378.19;1776172;80;20158;-65
2022/07/10 10:01:50;;;;;;;;;;;;;;;26.68;38.03;154367.70;1777770;80;20142;-65
2022/07/10 10:04:23;;;;;;;;;;;;;;;26.66;37.99;154362.47;1777512;79;20186;-65
2022/07/10 10:06:53;;;;;;;;;;;;;;;26.73;37.32;154380.81;1776822;80;20233;-65
2022/07/10 10:09:27;;;;;;;;;;;;;;;26.79;37.51;154396.53;1776705;79;20780;-65
2022/07/10 10:11:59;;;;;;;;;;;;;;;26.94;36.65;154433.31;1798790;79;20166;-64
2022/07/10 10:14:27;;;;;;;;;;;;;;;27.00;37.26;154449.03;1803931;79;20135;-63
2022/07/10 10:16:54;;;;;;;;;;;;;;;26.98;38.15;154443.80;1803435;79;20572;-64
2022/07/10 10:22:07;;;;;;;;;;;;;;;26.97;37.44;154441.19;1803224;79;22063;-65
2022/07/10 10:24:34;;;;;;;;;;;;;;;26.86;36.92;154414.97;1803605;78;20341;-65
2022/07/10 10:27:01;;;;;;;;;;;;;;;26.85;37.47;154412.31;1803381;79;20189;-65
2022/07/10 10:29:29;;;;;;;;;;;;;;;26.95;36.15;154437.22;1803620;79;20803;-65
2022/07/10 10:31:56;;;;;;;;;;;;;;;27.04;36.17;154459.52;1803662;78;20126;-65
2022/07/10 10:34:42;;;;;;;;;;;;;;;27.13;36.61;154483.16;1803511;79;21228;-65
2022/07/10 10:37:29;;;;;;;;;;;;;;;27.17;36.73;154493.64;1803426;79;20209;-65
2022/07/10 10:39:56;;;;;;;;;;;;;;;27.19;36.81;154496.27;1803695;79;20149;-65
2022/07/10 10:42:36;;;;;;;;;;;;;;;27.11;37.10;154477.91;1803576;79;20680;-64
2022/07/10 10:45:31;;;;;;;;;;;;;;;27.09;36.77;154472.67;1803467;79;20211;-65
2022/07/10 10:48:12;;;;;;;;;;;;;;;27.04;36.24;154459.52;1810817;79;21113;-64
2022/07/10 10:50:42;;;;;;;;;;;;;;;27.03;36.23;154458.23;1810587;79;20201;-64
2022/07/10 10:53:22;;;;;;;;;;;;;;;27.08;36.37;154470.06;1807074;79;20450;-65
2022/07/10 10:56:08;;;;;;;;;;;;;;;27.09;37.30;154472.67;1803321;79;20157;-64
2022/07/10 10:58:37;;;;;;;;;;;;;;;27.11;37.39;154477.91;1803189;79;20185;-64
2022/07/10 11:01:25;;;;;;;;;;;;;;;27.16;37.63;154491.03;1803357;79;21188;-64
2022/07/10 11:04:12;;;;;;;;;;;;;;;27.19;37.13;154496.27;1803656;79;20435;-64
2022/07/10 11:06:52;;;;;;;;;;;;;;;27.24;38.04;154509.38;1803599;79;20142;-65
2022/07/10 11:09:29;;;;;;;;;;;;;;;27.33;37.74;154533.00;1803441;79;20194;-64
2022/07/10 11:12:01;;;;;;;;;;;;;;;27.36;38.01;154540.88;1781649;79;20188;-65
2022/07/10 11:14:29;;;;;;;;;;;;;;;27.48;37.71;154569.70;1777747;80;21299;-65
2022/07/10 11:16:56;;;;;;;;;;;;;;;27.60;36.67;154601.25;1786885;79;20468;-65
2022/07/10 11:19:27;;;;;;;;;;;;;;;27.61;36.98;154603.88;1816615;79;20215;-66
2022/07/10 11:22:00;;;;;;;;;;;;;;;27.55;37.27;154588.16;1816440;79;20369;-66
2022/07/10 11:24:49;;;;;;;;;;;;;;;27.52;37.54;154581.58;1746928;78;20369;-66
2022/07/10 11:27:36;;;;;;;;;;;;;;;27.53;37.13;154582.91;1816544;79;22080;-65
2022/07/10 11:30:03;;;;;;;;;;;;;;;27.52;37.63;154580.23;1816600;79;20400;-65
2022/07/10 11:32:30;;;;;;;;;;;;;;;27.53;37.86;154582.91;1816717;79;20443;-65
2022/07/10 11:34:57;;;;;;;;;;;;;;;27.51;37.44;154577.56;1816523;79;20210;-66
2022/07/10 11:37:28;;;;;;;;;;;;;;;27.50;37.53;154574.94;1816413;79;20463;-65
2022/07/10 11:39:52;;;;;;;;;;;;;;;27.51;37.56;154577.56;1816494;78;21111;-65
2022/07/10 11:42:18;;;;;;;;;;;;;;;27.59;37.00;154598.64;1794040;79;20443;-65
2022/07/10 11:44:45;;;;;;;;;;;;;;;27.68;37.27;154622.23;1816603;79;20165;-65
2022/07/10 11:47:13;;;;;;;;;;;;;;;27.85;37.01;154665.56;1816442;79;20172;-66
2022/07/10 11:49:47;;;;;;;;;;;;;;;27.90;36.69;154677.34;1816606;79;20373;-66
2022/07/10 11:52:13;;;;;;;;;;;;;;;27.92;36.92;154682.59;1816661;77;21232;-65
2022/07/10 11:54:42;;;;;;;;;;;;;;;27.97;37.02;154694.41;1816379;79;20476;-66
2022/07/10 11:57:09;;;;;;;;;;;;;;;28.09;35.81;154724.58;1816583;79;20103;-65
2022/07/10 11:59:36;;;;;;;;;;;;;;;28.07;35.46;154719.34;1816333;79;20171;-65
2022/07/10 12:02:04;;;;;;;;;;;;;;;28.01;35.55;154706.23;1816572;79;20163;-65
2022/07/10 12:04:31;;;;;;;;;;;;;;;28.08;34.98;154721.97;1816625;79;21115;-65
2022/07/10 12:06:58;;;;;;;;;;;;;;;28.10;34.88;154727.20;1816780;79;20139;-65
2022/07/10 12:09:25;;;;;;;;;;;;;;;28.11;35.37;154729.83;1816454;78;20471;-65
2022/07/10 12:12:06;;;;;;;;;;;;;;;28.16;35.51;154742.98;1805525;79;20467;-65
2022/07/10 12:14:33;;;;;;;;;;;;;;;28.19;35.86;154750.91;1803841;78;20143;-66
2022/07/10 12:17:00;;;;;;;;;;;;;;;28.16;35.40;154742.98;1803620;79;21213;-65
2022/07/10 12:19:33;;;;;;;;;;;;;;;28.15;35.38;154740.31;1803230;79;20143;-66
2022/07/10 12:22:01;;;;;;;;;;;;;;;28.15;35.93;154740.31;1803481;79;20174;-65
2022/07/10 12:24:28;;;;;;;;;;;;;;;28.20;35.44;154753.53;1803294;79;20134;-66
2022/07/10 12:26:55;;;;;;;;;;;;;;;28.24;35.36;154762.69;1803344;79;20178;-66
2022/07/10 12:29:25;;;;;;;;;;;;;;;28.25;35.48;154766.64;1803049;79;21223;-65
2022/07/10 12:31:54;;;;;;;;;;;;;;;28.24;35.72;154764.02;1803365;79;20177;-68
2022/07/10 12:34:35;;;;;;;;;;;;;;;28.29;35.33;154777.12;1803137;79;20682;-68
2022/07/10 12:37:12;;;;;;;;;;;;;;;28.35;35.05;154790.25;1803308;78;20732;-66
2022/07/10 12:39:47;;;;;;;;;;;;;;;28.34;34.56;154788.95;1803547;79;20126;-66
2022/07/10 12:42:25;;;;;;;;;;;;;;;28.27;34.96;154771.89;1803420;79;21148;-66
2022/07/10 12:44:51;;;;;;;;;;;;;;;28.25;34.87;154766.64;1803445;79;20142;-67
2022/07/10 12:47:20;;;;;;;;;;;;;;;28.27;34.93;154770.55;1803297;79;20196;-67
2022/07/10 12:49:54;;;;;;;;;;;;;;;28.27;34.43;154771.89;1803568;79;20102;-67
2022/07/10 12:52:25;;;;;;;;;;;;;;;28.21;34.50;154756.16;1803482;79;20197;-67
2022/07/10 12:55:14;;;;;;;;;;;;;;;28.24;34.47;154762.69;1803642;78;21238;-67